createdAt,value
2018-09-20T00:02:05.188Z,22.88
2018-09-20T00:04:34.164Z,22.95
2018-09-20T00:07:03.074Z,22.74
2018-09-20T00:09:32.037Z,22.97
2018-09-20T00:12:00.965Z,22.78
2018-09-20T00:14:29.922Z,22.87
2018-09-20T00:16:58.847Z,22.90
2018-09-20T00:19:27.793Z,22.89
2018-09-20T00:21:56.732Z,22.78
2018-09-20T00:24:25.666Z,22.71
2018-09-20T00:26:54.598Z,22.48
2018-09-20T00:29:23.566Z,22.26
2018-09-20T00:31:52.638Z,22.06
2018-09-20T00:34:21.627Z,22.42
2018-09-20T00:36:50.593Z,21.86
2018-09-20T00:39:19.534Z,22.10
2018-09-20T00:41:48.530Z,22.32
2018-09-20T00:44:17.474Z,22.27
2018-09-20T00:46:46.459Z,22.34
2018-09-20T00:49:15.370Z,22.39
2018-09-20T00:51:44.325Z,21.84
2018-09-20T00:54:13.257Z,22.06
2018-09-20T00:56:42.257Z,21.82
2018-09-20T00:59:11.210Z,21.67
2018-09-20T01:01:40.191Z,21.67
2018-09-20T01:04:09.128Z,21.50
2018-09-20T01:06:38.116Z,21.72
2018-09-20T01:09:10.132Z,21.72
2018-09-20T01:11:39.376Z,21.66
2018-09-20T01:14:08.366Z,21.54
2018-09-20T01:16:37.398Z,21.49
2018-09-20T01:19:06.386Z,21.68
2018-09-20T01:21:35.355Z,21.33
2018-09-20T01:24:04.297Z,20.75
2018-09-20T01:26:33.274Z,21.12
2018-09-20T01:29:02.175Z,21.32
2018-09-20T01:31:31.165Z,21.26
2018-09-20T01:34:00.075Z,21.46
2018-09-20T01:36:29.026Z,21.30
2018-09-20T01:38:57.938Z,20.75
2018-09-20T01:41:26.883Z,20.74
2018-09-20T01:43:55.784Z,21.32
2018-09-20T01:46:24.734Z,21.21
2018-09-20T01:48:53.616Z,20.79
2018-09-20T01:51:22.566Z,20.98
2018-09-20T01:53:51.446Z,21.16
2018-09-20T01:56:20.390Z,21.31
2018-09-20T01:58:49.306Z,21.06
2018-09-20T02:01:18.286Z,20.34
2018-09-20T02:03:47.217Z,20.67
2018-09-20T02:06:16.178Z,20.95
2018-09-20T02:08:45.166Z,20.79
2018-09-20T02:11:14.107Z,21.05
2018-09-20T02:13:43.006Z,21.10
2018-09-20T02:16:11.985Z,21.03
2018-09-20T02:18:40.922Z,21.08
2018-09-20T02:21:09.893Z,21.19
2018-09-20T02:23:38.806Z,21.08
2018-09-20T02:26:07.746Z,21.22
2018-09-20T02:28:36.653Z,21.08
2018-09-20T02:31:05.643Z,21.16
2018-09-20T02:33:34.590Z,21.00
2018-09-20T02:36:03.526Z,20.78
2018-09-20T02:38:32.538Z,21.00
2018-09-20T02:41:01.474Z,20.78
2018-09-20T02:43:30.374Z,20.63
2018-09-20T02:45:59.334Z,20.76
2018-09-20T02:48:28.263Z,20.91
2018-09-20T02:50:57.195Z,21.02
2018-09-20T02:53:26.118Z,20.97
2018-09-20T02:55:55.117Z,20.82
2018-09-20T02:58:24.006Z,20.29
2018-09-20T03:00:52.924Z,20.57
2018-09-20T03:03:21.879Z,20.82
2018-09-20T03:05:50.794Z,20.73
2018-09-20T03:08:19.756Z,20.74
2018-09-20T03:10:48.654Z,20.72
2018-09-20T03:13:17.588Z,20.81
2018-09-20T03:15:46.496Z,20.87
2018-09-20T03:18:15.430Z,20.51
2018-09-20T03:20:44.320Z,20.67
2018-09-20T03:23:13.396Z,20.76
2018-09-20T03:25:42.281Z,20.64
2018-09-20T03:28:11.226Z,20.55
2018-09-20T03:30:40.462Z,20.58
2018-09-20T03:33:09.314Z,20.56
2018-09-20T03:35:38.263Z,20.63
2018-09-20T03:38:07.247Z,20.57
2018-09-20T03:40:36.150Z,20.47
2018-09-20T03:43:05.118Z,20.26
2018-09-20T03:45:34.065Z,20.41
2018-09-20T03:48:03.022Z,20.22
2018-09-20T03:50:31.942Z,20.32
2018-09-20T03:53:00.936Z,20.45
2018-09-20T03:55:29.896Z,20.37
2018-09-20T03:57:58.852Z,20.53
2018-09-20T04:00:27.788Z,20.06
2018-09-20T04:02:56.746Z,20.10
2018-09-20T04:05:25.741Z,20.00
2018-09-20T04:07:54.715Z,20.31
2018-09-20T04:10:23.636Z,20.23
2018-09-20T04:12:52.709Z,19.90
2018-09-20T04:15:21.626Z,19.87
2018-09-20T04:17:50.634Z,20.14
2018-09-20T04:20:19.565Z,19.92
2018-09-20T04:22:48.457Z,19.56
2018-09-20T04:25:17.431Z,19.71
2018-09-20T04:27:46.425Z,19.48
2018-09-20T04:30:15.398Z,19.65
2018-09-20T04:32:44.301Z,19.36
2018-09-20T04:35:13.225Z,18.72
2018-09-20T04:37:42.707Z,18.66
2018-09-20T04:40:11.702Z,18.95
2018-09-20T04:42:40.597Z,19.31
2018-09-20T04:45:09.639Z,19.14
2018-09-20T04:47:38.594Z,18.95
2018-09-20T04:50:08.086Z,18.99
2018-09-20T04:52:37.191Z,19.22
2018-09-20T04:55:06.851Z,19.23
2018-09-20T04:57:35.787Z,19.48
2018-09-20T05:00:04.786Z,19.14
2018-09-20T05:02:33.974Z,18.86
2018-09-20T05:05:02.926Z,19.03
2018-09-20T05:07:31.828Z,19.01
2018-09-20T05:10:00.777Z,18.68
2018-09-20T05:12:29.685Z,18.75
2018-09-20T05:14:58.666Z,18.31
2018-09-20T05:17:27.574Z,17.88
2018-09-20T05:19:56.515Z,17.90
2018-09-20T05:22:25.535Z,18.08
2018-09-20T05:24:54.473Z,18.23
2018-09-20T05:27:23.367Z,18.66
2018-09-20T05:29:52.301Z,18.66
2018-09-20T05:32:21.216Z,18.73
2018-09-20T05:34:50.277Z,19.07
2018-09-20T05:37:19.218Z,18.57
2018-09-20T05:39:48.194Z,18.76
2018-09-20T05:42:17.111Z,19.09
2018-09-20T05:44:46.135Z,19.16
2018-09-20T05:47:15.203Z,19.15
2018-09-20T05:49:44.134Z,19.21
2018-09-20T05:52:13.131Z,18.96
2018-09-20T05:54:42.081Z,18.82
2018-09-20T05:57:11.037Z,18.97
2018-09-20T05:59:39.954Z,18.67
2018-09-20T06:02:08.949Z,18.05
2018-09-20T06:04:37.881Z,17.70
2018-09-20T06:07:06.844Z,17.78
2018-09-20T06:09:35.787Z,17.72
2018-09-20T06:12:04.763Z,18.02
2018-09-20T06:14:33.707Z,18.41
2018-09-20T06:17:02.695Z,18.71
2018-09-20T06:19:31.620Z,19.06
2018-09-20T06:22:00.578Z,19.18
2018-09-20T06:25:00.922Z,19.18
2018-09-20T06:27:29.920Z,19.20
2018-09-20T06:29:58.866Z,19.83
2018-09-20T06:32:27.917Z,19.59
2018-09-20T06:34:56.901Z,19.79
2018-09-20T06:37:25.827Z,19.22
2018-09-20T06:39:54.748Z,19.39
2018-09-20T06:42:23.716Z,19.49
2018-09-20T06:44:52.709Z,19.61
2018-09-20T06:47:21.670Z,19.86
2018-09-20T06:49:50.607Z,20.33
2018-09-20T06:52:19.590Z,20.45
2018-09-20T06:54:48.527Z,20.54
2018-09-20T06:57:17.482Z,19.99
2018-09-20T06:59:46.526Z,20.46
2018-09-20T07:02:15.500Z,20.59
2018-09-20T07:04:44.430Z,21.21
2018-09-20T07:07:13.447Z,21.45
2018-09-20T07:09:42.426Z,20.92
2018-09-20T07:12:11.396Z,20.63
2018-09-20T07:14:40.306Z,21.01
2018-09-20T07:17:09.282Z,21.77
2018-09-20T07:19:38.238Z,21.10
2018-09-20T07:22:07.201Z,21.10
2018-09-20T07:24:36.122Z,21.63
2018-09-20T07:27:05.155Z,22.03
2018-09-20T07:29:34.099Z,21.79
2018-09-20T07:32:03.205Z,21.73
2018-09-20T07:34:32.185Z,22.09
2018-09-20T07:37:01.237Z,22.06
2018-09-20T07:39:30.183Z,22.68
2018-09-20T07:41:59.137Z,22.19
2018-09-20T07:44:28.041Z,22.91
2018-09-20T07:46:57.027Z,23.27
2018-09-20T07:49:25.966Z,23.39
2018-09-20T07:51:54.961Z,23.30
2018-09-20T07:54:23.922Z,23.33
2018-09-20T07:56:52.944Z,23.36
2018-09-20T07:59:21.941Z,23.22
2018-09-20T08:01:50.950Z,23.45
2018-09-20T08:04:19.931Z,23.18
2018-09-20T08:06:48.957Z,23.70
2018-09-20T08:09:17.921Z,23.40
2018-09-20T08:11:46.849Z,23.11
2018-09-20T08:14:15.848Z,23.99
2018-09-20T08:16:44.764Z,23.74
2018-09-20T08:19:13.727Z,23.33
2018-09-20T08:21:42.760Z,23.86
2018-09-20T08:24:11.687Z,23.94
2018-09-20T08:26:40.622Z,24.55
2018-09-20T08:29:09.598Z,24.22
2018-09-20T08:31:38.510Z,24.03
2018-09-20T08:34:07.693Z,24.32
2018-09-20T08:36:36.585Z,24.60
2018-09-20T08:39:08.895Z,25.41
2018-09-20T08:41:38.268Z,26.02
2018-09-20T08:44:08.018Z,25.76
2018-09-20T08:46:36.894Z,26.21
2018-09-20T08:49:05.841Z,26.22
2018-09-20T08:51:34.810Z,26.01
2018-09-20T08:54:03.738Z,26.32
2018-09-20T08:56:32.629Z,26.84
2018-09-20T08:59:01.594Z,26.21
2018-09-20T09:01:30.529Z,26.09
2018-09-20T09:03:59.489Z,26.86
2018-09-20T09:06:28.365Z,25.80
2018-09-20T09:08:57.390Z,26.79
2018-09-20T09:11:26.278Z,26.47
2018-09-20T09:13:55.212Z,26.07
2018-09-20T09:16:24.120Z,26.53
2018-09-20T09:18:53.110Z,26.90
2018-09-20T09:21:22.126Z,26.23
2018-09-20T09:23:51.046Z,27.37
2018-09-20T09:26:19.938Z,27.54
2018-09-20T09:28:49.000Z,27.42
2018-09-20T09:31:17.938Z,27.28
2018-09-20T09:33:47.064Z,27.01
2018-09-20T09:36:15.957Z,26.73
2018-09-20T09:38:44.900Z,27.61
2018-09-20T09:41:13.805Z,27.02
2018-09-20T09:43:42.763Z,28.21
2018-09-20T09:46:11.692Z,27.58
2018-09-20T09:48:40.929Z,28.56
2018-09-20T09:51:10.061Z,27.61
2018-09-20T09:53:39.090Z,27.83
2018-09-20T09:56:08.010Z,28.06
2018-09-20T09:58:36.898Z,28.11
2018-09-20T10:01:05.851Z,28.13
2018-09-20T10:03:34.717Z,28.58
2018-09-20T10:06:03.690Z,28.82
2018-09-20T10:08:32.581Z,29.25
2018-09-20T10:11:01.618Z,28.67
2018-09-20T10:13:30.604Z,28.64
2018-09-20T10:15:59.517Z,28.88
2018-09-20T10:18:28.405Z,29.21
2018-09-20T10:20:57.338Z,28.76
2018-09-20T10:23:26.278Z,29.63
2018-09-20T10:25:55.218Z,29.20
2018-09-20T10:28:24.120Z,29.91
2018-09-20T10:30:53.158Z,29.48
2018-09-20T10:33:22.156Z,29.12
2018-09-20T10:35:51.149Z,30.00
2018-09-20T10:38:20.107Z,30.49
2018-09-20T10:40:49.089Z,30.11
2018-09-20T10:43:18.030Z,30.18
2018-09-20T10:45:46.977Z,29.54
2018-09-20T10:48:15.902Z,30.47
2018-09-20T10:50:44.873Z,30.24
2018-09-20T10:53:13.804Z,30.19
2018-09-20T10:55:42.774Z,30.35
2018-09-20T10:58:11.706Z,30.87
2018-09-20T11:00:40.690Z,30.22
2018-09-20T11:03:09.639Z,30.89
2018-09-20T11:05:38.610Z,30.87
2018-09-20T11:08:07.548Z,31.82
2018-09-20T11:10:36.544Z,30.72
2018-09-20T11:13:05.488Z,31.02
2018-09-20T11:15:34.486Z,30.43
2018-09-20T11:18:03.422Z,30.83
2018-09-20T11:20:32.425Z,30.29
2018-09-20T11:23:01.390Z,31.82
2018-09-20T11:25:30.302Z,31.61
2018-09-20T11:27:59.280Z,31.44
2018-09-20T11:30:28.232Z,31.93
2018-09-20T11:32:57.214Z,31.24
2018-09-20T11:35:26.172Z,31.41
2018-09-20T11:37:55.230Z,31.90
2018-09-20T11:40:24.254Z,32.20
2018-09-20T11:42:53.226Z,31.94
2018-09-20T11:45:22.160Z,32.18
2018-09-20T11:47:51.174Z,31.59
2018-09-20T11:50:20.191Z,31.44
2018-09-20T11:52:49.186Z,31.46
2018-09-20T11:55:18.114Z,32.40
2018-09-20T11:57:47.371Z,31.74
2018-09-20T12:00:20.189Z,31.67
2018-09-20T12:02:49.785Z,32.67
2018-09-20T12:05:18.724Z,32.08
2018-09-20T12:07:47.754Z,32.99
2018-09-20T12:10:17.206Z,33.28
2018-09-20T12:12:46.174Z,33.87
2018-09-20T12:15:15.215Z,33.21
2018-09-20T12:17:44.258Z,32.03
2018-09-20T12:20:13.228Z,32.39
2018-09-20T12:22:42.213Z,32.39
2018-09-20T12:25:11.141Z,32.56
2018-09-20T12:27:40.146Z,33.16
2018-09-20T12:30:09.161Z,33.35
2018-09-20T12:32:38.168Z,32.33
2018-09-20T12:35:07.122Z,32.51
2018-09-20T12:37:36.681Z,32.01
2018-09-20T12:40:06.710Z,32.84
2018-09-20T12:42:35.690Z,32.81
2018-09-20T12:45:04.636Z,33.49
2018-09-20T12:47:34.111Z,32.35
2018-09-20T12:50:03.066Z,32.66
2018-09-20T12:52:32.062Z,33.25
2018-09-20T12:55:01.017Z,33.64
2018-09-20T12:57:30.028Z,34.14
2018-09-20T12:59:58.953Z,33.82
2018-09-20T13:02:27.937Z,34.29
2018-09-20T13:04:56.915Z,34.26
2018-09-20T13:07:25.947Z,34.37
2018-09-20T13:09:54.906Z,33.87
2018-09-20T13:12:23.894Z,33.31
2018-09-20T13:14:52.854Z,33.73
2018-09-20T13:17:21.857Z,33.18
2018-09-20T13:19:50.840Z,32.38
2018-09-20T13:22:19.846Z,33.60
2018-09-20T13:24:48.778Z,32.28
2018-09-20T13:27:17.710Z,33.70
2018-09-20T13:29:46.711Z,32.77
2018-09-20T13:32:15.696Z,33.82
2018-09-20T13:34:44.657Z,34.58
2018-09-20T13:37:13.667Z,34.05
2018-09-20T13:39:42.638Z,34.50
2018-09-20T13:42:11.625Z,32.72
2018-09-20T13:44:40.649Z,33.46
2018-09-20T13:47:09.582Z,34.02
2018-09-20T13:49:38.566Z,34.44
2018-09-20T13:52:08.035Z,34.37
2018-09-20T13:54:36.997Z,34.30
2018-09-20T13:57:06.011Z,34.26
2018-09-20T13:59:35.026Z,34.28
2018-09-20T14:02:03.966Z,33.67
2018-09-20T14:04:32.954Z,34.42
2018-09-20T14:07:01.905Z,34.40
2018-09-20T14:09:30.900Z,34.19
2018-09-20T14:11:59.868Z,32.54
2018-09-20T14:14:28.867Z,34.14
2018-09-20T14:16:57.793Z,34.06
2018-09-20T14:19:26.775Z,34.21
2018-09-20T14:21:55.721Z,34.34
2018-09-20T14:24:24.645Z,35.97
2018-09-20T14:26:53.641Z,35.66
2018-09-20T14:29:22.642Z,35.33
2018-09-20T14:31:51.651Z,35.55
2018-09-20T14:34:20.624Z,35.54
2018-09-20T14:36:49.834Z,34.82
2018-09-20T14:39:18.795Z,35.23
2018-09-20T14:41:47.807Z,34.54
2018-09-20T14:44:16.741Z,35.14
2018-09-20T14:46:45.745Z,34.79
2018-09-20T14:49:14.701Z,34.19
2018-09-20T14:51:43.692Z,34.30
2018-09-20T14:54:12.715Z,35.01
2018-09-20T14:56:41.693Z,34.98
2018-09-20T14:59:10.641Z,34.73
2018-09-20T15:01:39.616Z,34.88
2018-09-20T15:04:08.550Z,35.91
2018-09-20T15:06:37.556Z,33.84
2018-09-20T15:09:09.954Z,33.17
2018-09-20T15:11:38.947Z,32.97
2018-09-20T15:14:07.909Z,32.33
2018-09-20T15:16:36.898Z,32.03
2018-09-20T15:19:05.941Z,31.84
2018-09-20T15:21:34.904Z,31.81
2018-09-20T15:24:04.087Z,31.36
2018-09-20T15:26:33.094Z,31.13
2018-09-20T15:29:02.038Z,31.02
2018-09-20T15:31:31.030Z,31.31
2018-09-20T15:33:59.956Z,30.87
2018-09-20T15:36:28.954Z,31.21
2018-09-20T15:38:57.845Z,30.93
2018-09-20T15:41:26.788Z,30.59
2018-09-20T15:43:55.755Z,30.65
2018-09-20T15:46:24.727Z,30.75
2018-09-20T15:48:53.662Z,30.73
2018-09-20T15:51:22.607Z,30.66
2018-09-20T15:53:51.526Z,30.27
2018-09-20T15:56:20.514Z,30.16
2018-09-20T15:58:49.433Z,29.81
2018-09-20T16:01:18.377Z,30.02
2018-09-20T16:03:47.285Z,29.97
2018-09-20T16:06:16.270Z,30.04
2018-09-20T16:08:45.162Z,30.19
2018-09-20T16:11:14.093Z,29.97
2018-09-20T16:13:43.081Z,29.84
2018-09-20T16:16:12.036Z,29.94
2018-09-20T16:18:40.949Z,29.63
2018-09-20T16:21:09.945Z,29.75
2018-09-20T16:23:38.852Z,29.40
2018-09-20T16:26:08.034Z,29.53
2018-09-20T16:28:50.677Z,29.31
2018-09-20T16:31:34.128Z,29.39
2018-09-20T16:38:27.300Z,29.24
2018-09-20T16:40:57.977Z,29.60
2018-09-20T16:43:26.946Z,29.44
2018-09-20T16:45:55.892Z,28.98
2018-09-20T16:48:24.862Z,29.17
2018-09-20T16:50:53.782Z,29.07
2018-09-20T16:53:22.930Z,29.04
2018-09-20T16:55:51.765Z,29.23
2018-09-20T16:58:21.158Z,28.98
2018-09-20T17:00:50.105Z,28.90
2018-09-20T17:03:19.106Z,29.27
2018-09-20T17:05:48.360Z,29.66
2018-09-20T17:08:17.738Z,29.73
2018-09-20T17:10:46.667Z,29.92
2018-09-20T17:13:16.163Z,29.96
2018-09-20T17:15:45.061Z,30.05
2018-09-20T17:18:14.022Z,29.80
2018-09-20T17:20:42.946Z,29.66
2018-09-20T17:23:11.910Z,29.80
2018-09-20T17:25:40.846Z,29.58
2018-09-20T17:28:09.817Z,29.52
2018-09-20T17:30:38.736Z,29.61
2018-09-20T17:33:07.736Z,29.49
2018-09-20T17:35:36.881Z,29.52
2018-09-20T17:38:06.421Z,29.58
2018-09-20T17:40:36.014Z,29.45
2018-09-20T17:43:07.600Z,29.45
2018-09-20T17:45:36.546Z,29.33
2018-09-20T17:48:05.532Z,29.27
2018-09-20T17:50:34.794Z,29.04
2018-09-20T17:53:03.998Z,28.85
2018-09-20T17:55:33.256Z,28.49
2018-09-20T17:58:02.638Z,28.77
2018-09-20T18:00:31.525Z,28.44
2018-09-20T18:03:00.527Z,28.66
2018-09-20T18:05:29.482Z,28.68
2018-09-20T18:07:58.378Z,28.47
2018-09-20T18:10:27.337Z,28.61
2018-09-20T18:12:56.233Z,28.41
2018-09-20T18:15:25.174Z,28.54
2018-09-20T18:17:54.252Z,28.32
2018-09-20T18:20:23.226Z,28.50
2018-09-20T18:22:52.134Z,28.43
2018-09-20T18:25:21.085Z,28.32
2018-09-20T18:27:49.964Z,28.12
2018-09-20T18:30:18.930Z,27.78
2018-09-20T18:32:47.853Z,27.76
2018-09-20T18:35:16.882Z,28.01
2018-09-20T18:37:46.115Z,27.58
2018-09-20T18:40:15.156Z,27.47
2018-09-20T18:42:44.050Z,27.61
2018-09-20T18:45:13.026Z,27.66
2018-09-20T18:47:41.955Z,27.52
2018-09-20T18:50:11.076Z,27.69
2018-09-20T18:52:39.967Z,27.49
2018-09-20T18:55:08.958Z,26.74
2018-09-20T18:57:37.911Z,27.04
2018-09-20T19:00:07.007Z,26.88
2018-09-20T19:02:35.928Z,26.89
2018-09-20T19:05:05.349Z,26.70
2018-09-20T19:07:34.271Z,26.52
2018-09-20T19:10:03.237Z,26.79
2018-09-20T19:12:32.206Z,26.56
2018-09-20T19:15:01.185Z,26.41
2018-09-20T19:17:30.158Z,26.22
2018-09-20T19:19:59.146Z,25.67
2018-09-20T19:22:28.086Z,25.48
2018-09-20T19:24:57.066Z,25.76
2018-09-20T19:27:26.066Z,25.69
2018-09-20T19:29:55.010Z,24.91
2018-09-20T19:32:23.938Z,25.31
2018-09-20T19:34:52.833Z,25.53
2018-09-20T19:37:21.757Z,25.64
2018-09-20T19:39:50.801Z,25.75
2018-09-20T19:42:19.807Z,25.33
2018-09-20T19:44:48.714Z,25.45
2018-09-20T19:47:17.703Z,24.91
2018-09-20T19:49:46.639Z,24.68
2018-09-20T19:52:15.626Z,25.13
2018-09-20T19:54:44.559Z,25.08
2018-09-20T19:57:13.506Z,24.89
2018-09-20T19:59:42.471Z,24.87
2018-09-20T20:02:11.394Z,25.02
2018-09-20T20:04:40.374Z,24.85
2018-09-20T20:07:09.317Z,24.95
2018-09-20T20:09:38.205Z,24.97
2018-09-20T20:12:07.205Z,24.57
2018-09-20T20:14:36.105Z,24.68
2018-09-20T20:17:05.098Z,24.23
2018-09-20T20:19:34.177Z,24.54
2018-09-20T20:22:02.994Z,24.41
2018-09-20T20:24:32.215Z,23.74
2018-09-20T20:27:01.289Z,24.38
2018-09-20T20:29:30.173Z,24.59
2018-09-20T20:31:59.149Z,24.59
2018-09-20T20:34:28.094Z,24.67
2018-09-20T20:36:57.085Z,24.38
2018-09-20T20:39:26.002Z,24.67
2018-09-20T20:41:55.053Z,24.29
2018-09-20T20:44:24.035Z,24.21
2018-09-20T20:46:53.085Z,23.78
2018-09-20T20:49:21.995Z,24.16
2018-09-20T20:51:51.008Z,23.77
2018-09-20T20:54:20.026Z,24.11
2018-09-20T20:56:49.077Z,23.75
2018-09-20T20:59:18.020Z,23.71
2018-09-20T21:01:47.014Z,23.72
2018-09-20T21:04:15.946Z,23.86
2018-09-20T21:06:44.902Z,24.12
2018-09-20T21:09:13.853Z,23.50
2018-09-20T21:11:42.810Z,23.84
2018-09-20T21:14:11.771Z,23.97
2018-09-20T21:16:40.771Z,23.77
2018-09-20T21:19:09.669Z,23.81
2018-09-20T21:21:38.646Z,23.72
2018-09-20T21:24:07.627Z,23.77
2018-09-20T21:26:36.701Z,23.81
2018-09-20T21:29:05.853Z,23.83
2018-09-20T21:31:34.806Z,23.89
2018-09-20T21:34:03.755Z,23.73
2018-09-20T21:36:32.772Z,23.90
2018-09-20T21:39:01.766Z,23.89
2018-09-20T21:41:30.710Z,23.70
2018-09-20T21:43:59.755Z,23.87
2018-09-20T21:46:28.665Z,23.54
2018-09-20T21:48:57.617Z,23.67
2018-09-20T21:51:26.547Z,23.51
2018-09-20T21:53:55.553Z,23.36
2018-09-20T21:56:24.458Z,23.35
2018-09-20T21:58:53.414Z,23.20
2018-09-20T22:01:22.353Z,22.66
2018-09-20T22:03:51.368Z,22.72
2018-09-20T22:06:20.293Z,23.12
2018-09-20T22:08:49.318Z,23.03
2018-09-20T22:11:18.224Z,22.45
2018-09-20T22:13:47.195Z,22.34
2018-09-20T22:16:16.104Z,22.75
2018-09-20T22:18:45.145Z,22.44
2018-09-20T22:21:14.079Z,22.74
2018-09-20T22:23:43.042Z,22.62
2018-09-20T22:26:11.997Z,22.80
2018-09-20T22:28:40.951Z,22.79
2018-09-20T22:31:09.846Z,22.87
2018-09-20T22:33:38.760Z,22.69
2018-09-20T22:36:07.636Z,22.73
2018-09-20T22:38:36.560Z,22.59
2018-09-20T22:41:05.445Z,22.80
2018-09-20T22:43:34.381Z,22.76
2018-09-20T22:46:03.266Z,22.98
2018-09-20T22:48:32.195Z,22.80
2018-09-20T22:51:01.082Z,22.66
2018-09-20T22:53:30.034Z,22.32
2018-09-20T22:55:58.926Z,22.30
2018-09-20T22:58:27.914Z,22.32
2018-09-20T23:00:56.835Z,22.32
2018-09-20T23:03:25.786Z,22.33
2018-09-20T23:05:54.693Z,22.09
2018-09-20T23:08:23.605Z,21.94
2018-09-20T23:10:52.502Z,22.20
2018-09-20T23:13:21.435Z,22.05
2018-09-20T23:15:50.386Z,22.09
2018-09-20T23:18:19.394Z,21.52
2018-09-20T23:20:48.366Z,21.43
2018-09-20T23:23:17.290Z,21.12
2018-09-20T23:25:46.174Z,20.08
2018-09-20T23:28:15.090Z,20.46
2018-09-20T23:30:43.984Z,20.53
2018-09-20T23:33:12.969Z,20.15
2018-09-20T23:35:41.997Z,19.43
2018-09-20T23:38:10.919Z,19.29
2018-09-20T23:40:39.886Z,20.05
2018-09-20T23:43:08.817Z,19.69
2018-09-20T23:45:37.781Z,19.58
2018-09-20T23:48:06.717Z,20.30
2018-09-20T23:50:35.705Z,20.29
2018-09-20T23:53:04.598Z,20.85
2018-09-20T23:55:33.561Z,21.00
2018-09-20T23:58:02.457Z,20.93
